Station Historical Data
Daily Summary for February 12, 2017 Units:  English    Metric   Both
« Previous Day
Next Day »
Daily Weekly Monthly Yearly Custom
  High: Low: Average:
Temperature: 55.8 °F 41.4 °F 47.2 °F
Dew Point: 44.3 °F 26.8 °F 36.5 °F
Humidity: 90 % 46 % 67 %
Wind Speed: 16.0 mph 0.0 mph 2.6 mph
Wind Gust: 30.0 mph - -
Wind:- - SE
Pressure: 30.29 in 30.19 in -
Precipitation: 0.00 in    
Historical Graphs
 
 
Tabular Data for February 12, 2017
Time Temperature Dew Point Pressure Wind Wind Speed Wind Gust Humidity Rainfall Rate (Hourly) solar
00:00 44.7 °F 35.2 °F 30.28 in East 6.0 mph 16.0 mph 69 % 0.00 in 0.00 W/m2
00:05 44.7 °F 34.4 °F 30.28 in ESE 12.0 mph 16.0 mph 67 % 0.00 in 0.00 W/m2
00:10 44.9 °F 35.0 °F 30.28 in East 6.0 mph 19.0 mph 68 % 0.00 in 0.00 W/m2
00:15 45.1 °F 35.2 °F 30.28 in ESE 5.0 mph 18.0 mph 68 % 0.00 in 0.00 W/m2
00:20 45.1 °F 35.2 °F 30.28 in ESE 14.0 mph 16.0 mph 68 % 0.00 in 0.00 W/m2
00:25 45.1 °F 35.5 °F 30.28 in ESE 5.0 mph 18.0 mph 69 % 0.00 in 0.00 W/m2
00:30 45.0 °F 35.8 °F 30.27 in East 15.0 mph 15.0 mph 70 % 0.00 in 0.00 W/m2
00:35 44.9 °F 35.7 °F 30.28 in East 8.0 mph 17.0 mph 70 % 0.00 in 0.00 W/m2
00:40 44.7 °F 35.2 °F 30.28 in Calm   15.0 mph 69 % 0.00 in 0.00 W/m2
00:45 44.6 °F 35.4 °F 30.28 in ESE 5.0 mph 22.0 mph 70 % 0.00 in 0.00 W/m2
00:50 44.5 °F 35.0 °F 30.28 in East 5.0 mph 18.0 mph 69 % 0.00 in 0.00 W/m2
00:55 44.5 °F 35.3 °F 30.28 in ESE 11.0 mph 18.0 mph 70 % 0.00 in 0.00 W/m2
01:01 44.5 °F 35.0 °F 30.28 in ESE 13.0 mph 19.0 mph 69 % 0.00 in 0.00 W/m2
01:06 44.7 °F 35.2 °F 30.28 in SE 7.0 mph 21.0 mph 69 % 0.00 in 0.00 W/m2
01:11 44.7 °F 35.2 °F 30.28 in Calm   21.0 mph 69 % 0.00 in 0.00 W/m2
01:16 44.7 °F 35.5 °F 30.28 in ENE 3.0 mph 18.0 mph 70 % 0.00 in 0.00 W/m2
01:21 44.7 °F 34.0 °F 30.28 in ESE 12.0 mph 20.0 mph 66 % 0.00 in 0.00 W/m2
01:26 44.7 °F 34.8 °F 30.28 in ESE 2.0 mph 23.0 mph 68 % 0.00 in 0.00 W/m2
01:31 44.7 °F 34.4 °F 30.28 in SE 10.0 mph 18.0 mph 67 % 0.00 in 0.00 W/m2
01:36 44.8 °F 34.2 °F 30.28 in ESE 2.0 mph 17.0 mph 66 % 0.00 in 0.00 W/m2
01:41 44.8 °F 34.5 °F 30.28 in East 11.0 mph 21.0 mph 67 % 0.00 in 0.00 W/m2
01:46 44.8 °F 34.5 °F 30.28 in ESE 12.0 mph 25.0 mph 67 % 0.00 in 0.00 W/m2
01:51 44.8 °F 34.2 °F 30.27 in ESE 12.0 mph 18.0 mph 66 % 0.00 in 0.00 W/m2
01:56 44.8 °F 34.2 °F 30.27 in ESE 2.0 mph 20.0 mph 66 % 0.00 in 0.00 W/m2
02:01 44.8 °F 35.3 °F 30.27 in ESE 8.0 mph 19.0 mph 69 % 0.00 in 0.00 W/m2
02:06 44.7 °F 34.0 °F 30.27 in East 6.0 mph 21.0 mph 66 % 0.00 in 0.00 W/m2
02:11 44.6 °F 34.0 °F 30.27 in ESE 8.0 mph 19.0 mph 66 % 0.00 in 0.00 W/m2
02:16 44.6 °F 34.3 °F 30.27 in East 10.0 mph 20.0 mph 67 % 0.00 in 0.00 W/m2
02:21 44.5 °F 34.2 °F 30.27 in East 13.0 mph 19.0 mph 67 % 0.00 in 0.00 W/m2
02:26 44.5 °F 33.9 °F 30.27 in Calm   20.0 mph 66 % 0.00 in 0.00 W/m2
02:31 44.5 °F 33.5 °F 30.27 in Calm   18.0 mph 65 % 0.00 in 0.00 W/m2
02:36 44.6 °F 34.0 °F 30.27 in SE 8.0 mph 18.0 mph 66 % 0.00 in 0.00 W/m2
02:41 44.6 °F 34.3 °F 30.27 in ESE 9.0 mph 22.0 mph 67 % 0.00 in 0.00 W/m2
02:46 44.5 °F 33.5 °F 30.27 in ESE 14.0 mph 19.0 mph 65 % 0.00 in 0.00 W/m2
02:51 44.5 °F 34.2 °F 30.27 in ESE 1.0 mph 19.0 mph 67 % 0.00 in 0.00 W/m2
02:56 44.4 °F 33.8 °F 30.27 in East 14.0 mph 18.0 mph 66 % 0.00 in 0.00 W/m2
03:01 44.3 °F 34.0 °F 30.27 in ESE 15.0 mph 21.0 mph 67 % 0.00 in 0.00 W/m2
03:06 44.2 °F 34.0 °F 30.26 in East 13.0 mph 19.0 mph 67 % 0.00 in 0.00 W/m2
03:11 44.3 °F 33.3 °F 30.27 in East 6.0 mph 30.0 mph 65 % 0.00 in 0.00 W/m2
03:16 44.4 °F 32.6 °F 30.26 in East 8.0 mph 25.0 mph 63 % 0.00 in 0.00 W/m2
03:21 44.7 °F 33.3 °F 30.26 in East 6.0 mph 8.0 mph 64 % 0.00 in 0.00 W/m2
03:26 44.8 °F 33.4 °F 30.26 in ESE 14.0 mph 21.0 mph 64 % 0.00 in 0.00 W/m2
03:31 45.0 °F 32.4 °F 30.26 in East 4.0 mph 23.0 mph 61 % 0.00 in 0.00 W/m2
03:36 45.3 °F 32.7 °F 30.26 in ESE 6.0 mph 24.0 mph 61 % 0.00 in 0.00 W/m2
03:41 45.4 °F 32.8 °F 30.26 in East 6.0 mph 24.0 mph 61 % 0.00 in 0.00 W/m2
03:46 45.5 °F 32.8 °F 30.27 in NE 8.0 mph 20.0 mph 61 % 0.00 in 0.00 W/m2
03:51 45.5 °F 32.4 °F 30.27 in East 10.0 mph 20.0 mph 60 % 0.00 in 0.00 W/m2
03:56 45.5 °F 32.4 °F 30.26 in East 10.0 mph 20.0 mph 60 % 0.00 in 0.00 W/m2
04:01 45.5 °F 33.2 °F 30.26 in ESE 11.0 mph 19.0 mph 62 % 0.00 in 0.00 W/m2
04:06 45.4 °F 32.8 °F 30.26 in East 15.0 mph 20.0 mph 61 % 0.00 in 0.00 W/m2
04:11 45.2 °F 33.0 °F 30.26 in ESE 11.0 mph 21.0 mph 62 % 0.00 in 0.00 W/m2
04:16 45.1 °F 33.3 °F 30.26 in ESE 7.0 mph 19.0 mph 63 % 0.00 in 0.00 W/m2
04:21 45.0 °F 32.8 °F 30.26 in East 2.0 mph 21.0 mph 62 % 0.00 in 0.00 W/m2
04:26 44.9 °F 32.7 °F 30.26 in East 4.0 mph 23.0 mph 62 % 0.00 in 0.00 W/m2
04:31 44.8 °F 33.4 °F 30.26 in East 11.0 mph 25.0 mph 64 % 0.00 in 0.00 W/m2
04:36 44.8 °F 32.6 °F 30.26 in SE 16.0 mph 18.0 mph 62 % 0.00 in 0.00 W/m2
04:41 44.7 °F 32.9 °F 30.26 in East 8.0 mph 16.0 mph 63 % 0.00 in 0.00 W/m2
04:46 44.6 °F 32.8 °F 30.26 in East 11.0 mph 21.0 mph 63 % 0.00 in 0.00 W/m2
04:51 44.5 °F 33.1 °F 30.26 in East 9.0 mph 18.0 mph 64 % 0.00 in 0.00 W/m2
04:56 44.3 °F 32.1 °F 30.26 in ESE 5.0 mph 21.0 mph 62 % 0.00 in 0.00 W/m2
05:01 44.3 °F 31.7 °F 30.26 in Calm   16.0 mph 61 % 0.00 in 0.00 W/m2
05:06 44.3 °F 32.5 °F 30.26 in ESE 11.0 mph 22.0 mph 63 % 0.00 in 0.00 W/m2
05:11 44.2 °F 32.8 °F 30.25 in ESE 14.0 mph 19.0 mph 64 % 0.00 in 0.00 W/m2
05:16 44.2 °F 32.8 °F 30.25 in ESE 6.0 mph 19.0 mph 64 % 0.00 in 0.00 W/m2
05:21 44.1 °F 32.3 °F 30.25 in ESE 8.0 mph 20.0 mph 63 % 0.00 in 0.00 W/m2
05:26 44.1 °F 32.7 °F 30.25 in East 5.0 mph 19.0 mph 64 % 0.00 in 0.00 W/m2
05:31 44.0 °F 32.2 °F 30.25 in ESE 7.0 mph 19.0 mph 63 % 0.00 in 0.00 W/m2
05:36 44.0 °F 33.0 °F 30.25 in East 6.0 mph 18.0 mph 65 % 0.00 in 0.00 W/m2
05:41 43.8 °F 32.8 °F 30.25 in East 4.0 mph 5.0 mph 65 % 0.00 in 0.00 W/m2
05:46 43.7 °F 32.3 °F 30.25 in ESE 7.0 mph 9.0 mph 64 % 0.00 in 0.00 W/m2
05:51 43.7 °F 31.5 °F 30.25 in ESE 15.0 mph 15.0 mph 62 % 0.00 in 0.00 W/m2
05:56 43.7 °F 32.0 °F 30.25 in East 6.0 mph 7.0 mph 63 % 0.00 in 0.00 W/m2
06:01 43.7 °F 32.0 °F 30.26 in Calm     63 % 0.00 in 0.00 W/m2
06:06 43.7 °F 33.1 °F 30.26 in Calm   7.0 mph 66 % 0.00 in 0.00 W/m2
06:11 43.6 °F 33.4 °F 30.26 in Calm   1.0 mph 67 % 0.00 in 0.00 W/m2
06:16 43.4 °F 32.8 °F 30.26 in East 5.0 mph 8.0 mph 66 % 0.00 in 0.00 W/m2
06:21 43.1 °F 33.6 °F 30.26 in ESE 8.0 mph 8.0 mph 69 % 0.00 in 0.00 W/m2
06:26 42.8 °F 33.0 °F 30.26 in East 6.0 mph 7.0 mph 68 % 0.00 in 0.00 W/m2
06:31 42.6 °F 33.2 °F 30.26 in ESE 12.0 mph 13.0 mph 69 % 0.00 in 0.00 W/m2
06:36 42.4 °F 33.0 °F 30.26 in East 7.0 mph 7.0 mph 69 % 0.00 in 0.00 W/m2
06:41 42.2 °F 33.1 °F 30.26 in East 5.0 mph 8.0 mph 70 % 0.00 in 0.00 W/m2
06:46 42.1 °F 32.0 °F 30.25 in East 1.0 mph 1.0 mph 67 % 0.00 in 0.00 W/m2
06:51 42.0 °F 32.2 °F 30.25 in East 11.0 mph 11.0 mph 68 % 0.00 in 0.00 W/m2
06:56 41.9 °F 32.1 °F 30.25 in ESE 7.0 mph 15.0 mph 68 % 0.00 in 5.00 W/m2
07:01 41.8 °F 32.0 °F 30.25 in ESE 6.0 mph 13.0 mph 68 % 0.00 in 9.00 W/m2
07:06 41.8 °F 31.7 °F 30.25 in Calm   1.0 mph 67 % 0.00 in 12.00 W/m2
07:11 41.8 °F 32.0 °F 30.25 in East 10.0 mph 15.0 mph 68 % 0.00 in 16.00 W/m2
07:16 41.8 °F 32.8 °F 30.26 in Calm   6.0 mph 70 % 0.00 in 19.00 W/m2
07:21 41.8 °F 32.0 °F 30.26 in ESE 8.0 mph 15.0 mph 68 % 0.00 in 25.00 W/m2
07:26 41.8 °F 32.4 °F 30.26 in Calm   4.0 mph 69 % 0.00 in 32.00 W/m2
07:31 41.7 °F 31.6 °F 30.26 in East 1.0 mph 11.0 mph 67 % 0.00 in 44.00 W/m2
07:36 41.7 °F 33.0 °F 30.26 in East 6.0 mph 8.0 mph 71 % 0.00 in 60.00 W/m2
07:41 41.7 °F 33.3 °F 30.26 in East 1.0 mph 1.0 mph 72 % 0.00 in 77.00 W/m2
07:46 41.6 °F 32.9 °F 30.26 in Calm   1.0 mph 71 % 0.00 in 93.00 W/m2
07:51 41.6 °F 33.3 °F 30.27 in ENE 1.0 mph 8.0 mph 72 % 0.00 in 113.00 W/m2
07:57 41.5 °F 33.2 °F 30.27 in East 7.0 mph 10.0 mph 72 % 0.00 in 130.00 W/m2
08:02 41.4 °F 32.7 °F 30.27 in Calm   8.0 mph 71 % 0.00 in 148.00 W/m2
08:07 41.5 °F 31.7 °F 30.27 in Calm   1.0 mph 68 % 0.00 in 172.00 W/m2
08:12 41.5 °F 32.1 °F 30.27 in Calm   1.0 mph 69 % 0.00 in 190.00 W/m2
08:17 41.6 °F 31.8 °F 30.27 in Calm   2.0 mph 68 % 0.00 in 211.00 W/m2
08:22 41.8 °F 31.7 °F 30.27 in Calm   1.0 mph 67 % 0.00 in 236.00 W/m2
08:27 42.0 °F 31.1 °F 30.27 in ESE 2.0 mph 8.0 mph 65 % 0.00 in 255.00 W/m2
08:32 42.5 °F 32.0 °F 30.28 in SE 1.0 mph 2.0 mph 66 % 0.00 in 274.00 W/m2
08:37 42.9 °F 34.2 °F 30.28 in Calm   1.0 mph 71 % 0.00 in 297.00 W/m2
08:42 43.1 °F 31.0 °F 30.29 in Calm     62 % 0.00 in 318.00 W/m2
08:47 43.3 °F 32.3 °F 30.29 in SE 1.0 mph 2.0 mph 65 % 0.00 in 338.00 W/m2
08:52 43.6 °F 33.4 °F 30.29 in Calm   2.0 mph 67 % 0.00 in 355.00 W/m2
08:57 43.8 °F 32.8 °F 30.29 in Calm   1.0 mph 65 % 0.00 in 367.00 W/m2
09:02 44.0 °F 31.8 °F 30.29 in SE 1.0 mph 1.0 mph 62 % 0.00 in 383.00 W/m2
09:07 44.4 °F 33.8 °F 30.29 in SE 1.0 mph 2.0 mph 66 % 0.00 in 397.00 W/m2
09:12 44.7 °F 33.7 °F 30.29 in SE 1.0 mph 1.0 mph 65 % 0.00 in 413.00 W/m2
09:17 45.1 °F 35.2 °F 30.28 in SE 2.0 mph 2.0 mph 68 % 0.00 in 427.00 W/m2
09:22 45.5 °F 35.6 °F 30.28 in ESE 1.0 mph 2.0 mph 68 % 0.00 in 439.00 W/m2
09:27 45.8 °F 35.8 °F 30.28 in East 1.0 mph 1.0 mph 68 % 0.00 in 455.00 W/m2
09:32 46.2 °F 34.7 °F 30.28 in Calm   1.0 mph 64 % 0.00 in 468.00 W/m2
09:37 46.5 °F 35.0 °F 30.28 in Calm     64 % 0.00 in 482.00 W/m2
09:42 46.8 °F 34.9 °F 30.28 in Calm     63 % 0.00 in 494.00 W/m2
09:47 47.1 °F 35.6 °F 30.28 in East 1.0 mph 3.0 mph 64 % 0.00 in 504.00 W/m2
09:52 47.6 °F 36.0 °F 30.28 in East 1.0 mph 4.0 mph 64 % 0.00 in 517.00 W/m2
09:57 47.9 °F 36.3 °F 30.28 in East 1.0 mph 1.0 mph 64 % 0.00 in 529.00 W/m2
10:02 48.2 °F 33.3 °F 30.28 in Calm   1.0 mph 56 % 0.00 in 540.00 W/m2
10:07 49.0 °F 32.6 °F 30.28 in Calm   1.0 mph 53 % 0.00 in 550.00 W/m2
10:12 49.6 °F 33.7 °F 30.28 in East 1.0 mph 1.0 mph 54 % 0.00 in 561.00 W/m2
10:17 49.9 °F 33.5 °F 30.28 in Calm   1.0 mph 53 % 0.00 in 571.00 W/m2
10:22 50.3 °F 34.8 °F 30.28 in Calm   2.0 mph 55 % 0.00 in 582.00 W/m2
10:27 50.6 °F 32.7 °F 30.28 in NW 1.0 mph 3.0 mph 50 % 0.00 in 594.00 W/m2
10:32 51.0 °F 33.5 °F 30.28 in WNW 2.0 mph 3.0 mph 51 % 0.00 in 606.00 W/m2
10:37 51.2 °F 33.2 °F 30.28 in NNW 5.0 mph 5.0 mph 50 % 0.00 in 601.00 W/m2
10:42 51.4 °F 36.7 °F 30.28 in NNW 2.0 mph 4.0 mph 57 % 0.00 in 596.00 W/m2
10:48 51.7 °F 33.7 °F 30.28 in NW 2.0 mph 5.0 mph 50 % 0.00 in 626.00 W/m2
10:53 51.9 °F 35.3 °F 30.28 in NW 3.0 mph 3.0 mph 53 % 0.00 in 624.00 W/m2
10:58 52.1 °F 34.0 °F 30.29 in Calm   2.0 mph 50 % 0.00 in 619.00 W/m2
11:03 52.4 °F 33.8 °F 30.29 in NNW 2.0 mph 3.0 mph 49 % 0.00 in 642.00 W/m2
11:08 52.8 °F 36.2 °F 30.29 in NW 1.0 mph 3.0 mph 53 % 0.00 in 645.00 W/m2
11:13 53.1 °F 34.0 °F 30.29 in Calm   1.0 mph 48 % 0.00 in 615.00 W/m2
11:18 53.4 °F 33.2 °F 30.28 in NW 3.0 mph 3.0 mph 46 % 0.00 in 592.00 W/m2
11:23 53.7 °F 34.5 °F 30.28 in Calm   2.0 mph 48 % 0.00 in 622.00 W/m2
11:28 54.0 °F 34.8 °F 30.28 in WNW 2.0 mph 6.0 mph 48 % 0.00 in 677.00 W/m2
11:33 54.2 °F 36.0 °F 30.28 in Calm   3.0 mph 50 % 0.00 in 661.00 W/m2
11:38 54.1 °F 36.4 °F 30.28 in NW 2.0 mph 5.0 mph 51 % 0.00 in 675.00 W/m2
11:43 54.1 °F 37.4 °F 30.28 in WNW 5.0 mph 8.0 mph 53 % 0.00 in 680.00 W/m2
11:48 54.0 °F 36.3 °F 30.28 in WNW 2.0 mph 6.0 mph 51 % 0.00 in 624.00 W/m2
11:53 54.0 °F 34.8 °F 30.28 in Calm   7.0 mph 48 % 0.00 in 696.00 W/m2
11:58 54.1 °F 35.9 °F 30.27 in Calm   6.0 mph 50 % 0.00 in 700.00 W/m2
12:03 54.1 °F 36.4 °F 30.27 in Calm   2.0 mph 51 % 0.00 in 640.00 W/m2
12:08 54.2 °F 35.0 °F 30.27 in NW 3.0 mph 7.0 mph 48 % 0.00 in 652.00 W/m2
12:13 54.3 °F 34.5 °F 30.27 in NW 2.0 mph 8.0 mph 47 % 0.00 in 687.00 W/m2
12:18 54.5 °F 37.2 °F 30.26 in Calm   6.0 mph 52 % 0.00 in 664.00 W/m2
12:23 54.6 °F 35.3 °F 30.26 in Calm   1.0 mph 48 % 0.00 in 705.00 W/m2
12:28 54.6 °F 34.8 °F 30.26 in NNW 6.0 mph 7.0 mph 47 % 0.00 in 703.00 W/m2
12:33 54.6 °F 36.8 °F 30.26 in WNW 1.0 mph 6.0 mph 51 % 0.00 in 635.00 W/m2
12:38 54.8 °F 37.0 °F 30.25 in Calm   6.0 mph 51 % 0.00 in 638.00 W/m2
12:43 54.9 °F 36.6 °F 30.25 in Calm   6.0 mph 50 % 0.00 in 617.00 W/m2
12:48 54.9 °F 38.6 °F 30.25 in Calm   1.0 mph 54 % 0.00 in 612.00 W/m2
12:53 54.9 °F 38.1 °F 30.25 in Calm   1.0 mph 53 % 0.00 in 374.00 W/m2
12:58 54.8 °F 38.0 °F 30.25 in Calm   1.0 mph 53 % 0.00 in 654.00 W/m2
13:03 54.9 °F 38.1 °F 30.24 in Calm   2.0 mph 53 % 0.00 in 613.00 W/m2
13:08 54.9 °F 39.0 °F 30.24 in Calm   1.0 mph 55 % 0.00 in 659.00 W/m2
13:13 54.9 °F 39.0 °F 30.23 in Calm   1.0 mph 55 % 0.00 in 640.00 W/m2
13:18 55.0 °F 40.5 °F 30.23 in Calm   1.0 mph 58 % 0.00 in 643.00 W/m2
13:23 55.0 °F 40.1 °F 30.23 in Calm   1.0 mph 57 % 0.00 in 642.00 W/m2
13:28 55.0 °F 39.2 °F 30.23 in Calm   2.0 mph 55 % 0.00 in 638.00 W/m2
13:33 55.1 °F 38.3 °F 30.23 in Calm   1.0 mph 53 % 0.00 in 603.00 W/m2
13:38 55.3 °F 39.0 °F 30.22 in Calm   1.0 mph 54 % 0.00 in 633.00 W/m2
13:43 55.3 °F 38.5 °F 30.22 in Calm   1.0 mph 53 % 0.00 in 636.00 W/m2
13:49 55.5 °F 39.1 °F 30.22 in Calm   1.0 mph 54 % 0.00 in 578.00 W/m2
13:54 55.6 °F 39.2 °F 30.22 in Calm   1.0 mph 54 % 0.00 in 526.00 W/m2
13:58 55.6 °F 39.2 °F 30.22 in Calm   1.0 mph 54 % 0.00 in 584.00 W/m2
14:03 55.6 °F 39.2 °F 30.21 in WNW 1.0 mph 1.0 mph 54 % 0.00 in 561.00 W/m2
14:09 55.6 °F 39.2 °F 30.21 in WNW 1.0 mph 1.0 mph 54 % 0.00 in 520.00 W/m2
14:14 55.6 °F 40.2 °F 30.21 in Calm   1.0 mph 56 % 0.00 in 561.00 W/m2
14:19 55.6 °F 40.2 °F 30.20 in WNW 1.0 mph 1.0 mph 56 % 0.00 in 559.00 W/m2
14:24 55.7 °F 40.3 °F 30.20 in Calm   7.0 mph 56 % 0.00 in 504.00 W/m2
14:29 55.8 °F 40.4 °F 30.20 in Calm   1.0 mph 56 % 0.00 in 538.00 W/m2
14:34 55.8 °F 40.8 °F 30.20 in Calm   1.0 mph 57 % 0.00 in 533.00 W/m2
14:39 55.8 °F 41.3 °F 30.20 in Calm   1.0 mph 58 % 0.00 in 348.00 W/m2
14:44 55.8 °F 41.3 °F 30.19 in Calm   1.0 mph 58 % 0.00 in 466.00 W/m2
14:49 55.8 °F 41.3 °F 30.19 in Calm   1.0 mph 58 % 0.00 in 452.00 W/m2
14:54 55.8 °F 41.3 °F 30.19 in Calm   1.0 mph 58 % 0.00 in 394.00 W/m2
14:59 55.8 °F 41.7 °F 30.19 in Calm   1.0 mph 59 % 0.00 in 381.00 W/m2
15:04 55.8 °F 41.3 °F 30.19 in NW 1.0 mph 1.0 mph 58 % 0.00 in 387.00 W/m2
15:09 55.8 °F 41.7 °F 30.19 in Calm   1.0 mph 59 % 0.00 in 366.00 W/m2
15:14 55.8 °F 42.6 °F 30.19 in Calm   5.0 mph 61 % 0.00 in 410.00 W/m2
15:19 55.8 °F 43.4 °F 30.19 in Calm   1.0 mph 63 % 0.00 in 392.00 W/m2
15:24 55.6 °F 42.8 °F 30.19 in Calm   1.0 mph 62 % 0.00 in 355.00 W/m2
15:29 55.5 °F 43.1 °F 30.19 in Calm   5.0 mph 63 % 0.00 in 390.00 W/m2
15:34 55.4 °F 43.0 °F 30.19 in Calm   7.0 mph 63 % 0.00 in 369.00 W/m2
15:39 55.2 °F 42.4 °F 30.19 in Calm   1.0 mph 62 % 0.00 in 348.00 W/m2
15:44 55.2 °F 41.6 °F 30.19 in Calm   1.0 mph 60 % 0.00 in 329.00 W/m2
15:49 55.1 °F 41.9 °F 30.19 in West 1.0 mph 2.0 mph 61 % 0.00 in 308.00 W/m2
15:54 55.1 °F 42.3 °F 30.19 in Calm   1.0 mph 62 % 0.00 in 288.00 W/m2
15:59 55.0 °F 41.8 °F 30.19 in Calm   1.0 mph 61 % 0.00 in 272.00 W/m2
16:04 55.0 °F 42.2 °F 30.19 in Calm   1.0 mph 62 % 0.00 in 255.00 W/m2
16:09 54.9 °F 42.6 °F 30.19 in WNW 1.0 mph 1.0 mph 63 % 0.00 in 239.00 W/m2
16:14 54.8 °F 43.3 °F 30.20 in West 2.0 mph 8.0 mph 65 % 0.00 in 220.00 W/m2
16:19 54.7 °F 43.6 °F 30.20 in West 5.0 mph 7.0 mph 66 % 0.00 in 202.00 W/m2
16:24 54.6 °F 44.3 °F 30.20 in Calm   7.0 mph 68 % 0.00 in 183.00 W/m2
16:29 54.2 °F 43.5 °F 30.20 in Calm   1.0 mph 67 % 0.00 in 162.00 W/m2
16:34 53.9 °F 43.6 °F 30.20 in Calm   1.0 mph 68 % 0.00 in 141.00 W/m2
16:39 53.6 °F 43.3 °F 30.20 in Calm   1.0 mph 68 % 0.00 in 121.00 W/m2
16:44 53.3 °F 43.4 °F 30.20 in Calm   1.0 mph 69 % 0.00 in 98.00 W/m2
16:49 53.0 °F 43.1 °F 30.20 in Calm     69 % 0.00 in 76.00 W/m2
16:54 52.8 °F 42.9 °F 30.20 in Calm     69 % 0.00 in 56.00 W/m2
16:59 52.6 °F 43.5 °F 30.20 in Calm     71 % 0.00 in 44.00 W/m2
17:04 52.4 °F 44.0 °F 30.20 in Calm     73 % 0.00 in 39.00 W/m2
17:05 52.4 °F 44.0 °F 30.20 in Calm     73 % 0.00 in 39.00 W/m2
17:10 52.1 °F 44.1 °F 30.20 in Calm     74 % 0.00 in 30.00 W/m2
17:15 51.8 °F 43.8 °F 30.20 in Calm     74 % 0.00 in 25.00 W/m2
17:20 51.5 °F 43.5 °F 30.20 in Calm     74 % 0.00 in 19.00 W/m2
17:25 51.0 °F 43.4 °F 30.20 in Calm     75 % 0.00 in 14.00 W/m2
17:30 50.3 °F 43.0 °F 30.20 in Calm     76 % 0.00 in 11.00 W/m2
17:35 49.9 °F 43.3 °F 30.20 in Calm   1.0 mph 78 % 0.00 in 7.00 W/m2
17:40 49.6 °F 43.4 °F 30.20 in Calm   1.0 mph 79 % 0.00 in 0.00 W/m2
17:45 49.4 °F 43.5 °F 30.20 in Calm     80 % 0.00 in 0.00 W/m2
17:50 49.2 °F 43.3 °F 30.21 in Calm     80 % 0.00 in 0.00 W/m2
17:55 48.9 °F 42.7 °F 30.20 in Calm     79 % 0.00 in 0.00 W/m2
18:00 48.4 °F 42.5 °F 30.20 in Calm     80 % 0.00 in 0.00 W/m2
18:05 48.0 °F 42.5 °F 30.21 in Calm     81 % 0.00 in 0.00 W/m2
18:10 47.8 °F 42.6 °F 30.21 in Calm     82 % 0.00 in 0.00 W/m2
18:15 47.6 °F 42.4 °F 30.22 in Calm     82 % 0.00 in 0.00 W/m2
18:20 47.3 °F 41.8 °F 30.22 in Calm     81 % 0.00 in 0.00 W/m2
18:25 47.1 °F 41.9 °F 30.22 in Calm     82 % 0.00 in 0.00 W/m2
18:30 46.8 °F 41.9 °F 30.22 in Calm     83 % 0.00 in 0.00 W/m2
18:35 46.5 °F 41.9 °F 30.22 in Calm     84 % 0.00 in 0.00 W/m2
18:40 46.3 °F 41.7 °F 30.22 in Calm     84 % 0.00 in 0.00 W/m2
18:45 46.0 °F 41.8 °F 30.22 in Calm     85 % 0.00 in 0.00 W/m2
18:50 45.7 °F 41.5 °F 30.22 in Calm     85 % 0.00 in 0.00 W/m2
18:55 45.4 °F 41.5 °F 30.22 in Calm     86 % 0.00 in 0.00 W/m2
19:00 45.2 °F 41.3 °F 30.22 in Calm     86 % 0.00 in 0.00 W/m2
19:06 45.1 °F 41.2 °F 30.22 in Calm     86 % 0.00 in 0.00 W/m2
19:11 44.9 °F 41.0 °F 30.22 in Calm     86 % 0.00 in 0.00 W/m2
19:16 44.8 °F 41.2 °F 30.22 in Calm     87 % 0.00 in 0.00 W/m2
19:21 44.6 °F 41.0 °F 30.22 in Calm     87 % 0.00 in 0.00 W/m2
19:26 44.5 °F 40.9 °F 30.22 in Calm     87 % 0.00 in 0.00 W/m2
19:31 44.4 °F 40.8 °F 30.22 in Calm     87 % 0.00 in 0.00 W/m2
19:36 44.3 °F 41.0 °F 30.22 in Calm     88 % 0.00 in 0.00 W/m2
19:41 44.2 °F 40.9 °F 30.22 in Calm     88 % 0.00 in 0.00 W/m2
19:46 44.1 °F 40.8 °F 30.22 in Calm     88 % 0.00 in 0.00 W/m2
19:51 44.1 °F 41.1 °F 30.22 in Calm     89 % 0.00 in 0.00 W/m2
19:56 44.0 °F 41.0 °F 30.22 in Calm     89 % 0.00 in 0.00 W/m2
20:01 44.0 °F 41.0 °F 30.22 in Calm     89 % 0.00 in 0.00 W/m2
20:06 43.8 °F 40.8 °F 30.22 in Calm     89 % 0.00 in 0.00 W/m2
20:11 43.6 °F 40.6 °F 30.22 in Calm     89 % 0.00 in 0.00 W/m2
20:16 43.5 °F 40.5 °F 30.22 in Calm     89 % 0.00 in 0.00 W/m2
20:21 43.5 °F 40.8 °F 30.22 in Calm     90 % 0.00 in 0.00 W/m2
20:26 43.5 °F 40.8 °F 30.22 in Calm     90 % 0.00 in 0.00 W/m2
20:31 43.4 °F 40.4 °F 30.22 in Calm     89 % 0.00 in 0.00 W/m2
20:36 43.3 °F 40.6 °F 30.22 in Calm     90 % 0.00 in 0.00 W/m2
20:41 43.2 °F 40.2 °F 30.22 in Calm     89 % 0.00 in 0.00 W/m2
20:46 43.1 °F 40.1 °F 30.22 in Calm     89 % 0.00 in 0.00 W/m2
20:51 42.9 °F 39.9 °F 30.22 in Calm     89 % 0.00 in 0.00 W/m2
20:56 42.8 °F 40.1 °F 30.22 in Calm     90 % 0.00 in 0.00 W/m2
21:01 42.7 °F 39.7 °F 30.22 in Calm     89 % 0.00 in 0.00 W/m2
21:06 42.7 °F 39.7 °F 30.22 in Calm     89 % 0.00 in 0.00 W/m2
21:11 42.7 °F 39.7 °F 30.22 in Calm     89 % 0.00 in 0.00 W/m2
21:16 42.7 °F 39.4 °F 30.22 in Calm     88 % 0.00 in 0.00 W/m2
21:21 42.7 °F 39.4 °F 30.22 in Calm     88 % 0.00 in 0.00 W/m2
21:26 42.6 °F 39.3 °F 30.22 in Calm     88 % 0.00 in 0.00 W/m2
21:31 42.5 °F 38.6 °F 30.22 in Calm     86 % 0.00 in 0.00 W/m2
21:36 42.6 °F 38.7 °F 30.21 in Calm     86 % 0.00 in 0.00 W/m2
21:41 42.5 °F 38.3 °F 30.21 in Calm     85 % 0.00 in 0.00 W/m2
21:46 42.4 °F 38.2 °F 30.21 in Calm     85 % 0.00 in 0.00 W/m2
21:51 42.4 °F 38.2 °F 30.21 in Calm     85 % 0.00 in 0.00 W/m2
21:56 42.4 °F 37.9 °F 30.21 in Calm     84 % 0.00 in 0.00 W/m2
22:01 42.5 °F 37.7 °F 30.21 in Calm     83 % 0.00 in 0.00 W/m2
22:06 42.7 °F 37.0 °F 30.21 in Calm     80 % 0.00 in 0.00 W/m2
22:11 42.8 °F 36.1 °F 30.21 in Calm     77 % 0.00 in 0.00 W/m2
22:16 42.8 °F 35.8 °F 30.21 in Calm     76 % 0.00 in 0.00 W/m2
22:21 42.7 °F 35.0 °F 30.21 in Calm     74 % 0.00 in 0.00 W/m2
22:26 42.6 °F 34.6 °F 30.21 in Calm     73 % 0.00 in 0.00 W/m2
22:31 42.4 °F 34.0 °F 30.21 in Calm     72 % 0.00 in 0.00 W/m2
22:36 42.2 °F 33.8 °F 30.21 in Calm     72 % 0.00 in 0.00 W/m2
22:41 42.2 °F 34.2 °F 30.21 in Calm     73 % 0.00 in 0.00 W/m2
22:46 42.1 °F 32.7 °F 30.21 in Calm     69 % 0.00 in 0.00 W/m2
22:51 42.1 °F 32.0 °F 30.21 in Calm     67 % 0.00 in 0.00 W/m2
22:56 42.1 °F 31.2 °F 30.22 in Calm     65 % 0.00 in 0.00 W/m2
23:01 42.2 °F 28.1 °F 30.22 in Calm     57 % 0.00 in 0.00 W/m2
23:06 42.7 °F 26.8 °F 30.21 in Calm     53 % 0.00 in 0.00 W/m2
23:11 43.1 °F 29.8 °F 30.21 in Calm     59 % 0.00 in 0.00 W/m2
23:16 43.4 °F 28.8 °F 30.21 in Calm     56 % 0.00 in 0.00 W/m2
23:21 43.6 °F 28.5 °F 30.22 in Calm     55 % 0.00 in 0.00 W/m2
23:26 43.8 °F 30.4 °F 30.22 in Calm     59 % 0.00 in 0.00 W/m2
23:31 43.9 °F 30.9 °F 30.22 in Calm     60 % 0.00 in 0.00 W/m2
23:36 43.9 °F 30.1 °F 30.22 in Calm     58 % 0.00 in 0.00 W/m2
23:41 43.9 °F 31.3 °F 30.22 in Calm     61 % 0.00 in 0.00 W/m2
23:46 43.6 °F 31.9 °F 30.22 in Calm     63 % 0.00 in 0.00 W/m2
23:51 43.3 °F 33.1 °F 30.22 in Calm     67 % 0.00 in 0.00 W/m2
23:56 43.0 °F 32.8 °F 30.22 in Calm     67 % 0.00 in 0.00 W/m2
Juneau County Weather
Compliments of Weather Underground - 4.5 mb
 WU-history PHP script courtesy of   Juneau County Weather.
powered by Cumulus v1.9.3 (1059)
Ambient Weather VWS v14.00
Top Contact Website Map Copyright © 2007 - 2018 Foresthillweather.com Never base important decisions on this or any weather information obtained from the Internet